Time;durP1;ratioP1;P1;durP2;ratioP2;P2;SDS_P1;SDS_P2;PMS_P1;PMS_P2;Temp;Humidity;BMP_temperature;BMP_pressure;BME280_temperature;BME280_humidity;BME280_pressure;Samples;Min_cycle;Max_cycle;Signal;HPM_P1;HPM_P2
2023/03/07 00:00:45;;;;;;;;;;;;;;;6.92;66.88;99843.44;5013211;28;20004;-67
2023/03/07 00:03:11;;;;;;;;;;;;;;;6.91;66.75;99841.81;5012550;28;20362;-66
2023/03/07 00:05:37;;;;;;;;;;;;;;;6.92;66.86;99848.81;5012639;28;20350;-71
2023/03/07 00:08:02;;;;;;;;;;;;;;;6.91;66.91;99848.00;5017669;28;20419;-67
2023/03/07 00:10:27;;;;;;;;;;;;;;;6.91;66.90;99839.94;5025263;28;19914;-65
2023/03/07 00:12:53;;;;;;;;;;;;;;;6.90;66.99;99832.97;5012132;28;19917;-66
2023/03/07 00:15:19;;;;;;;;;;;;;;;6.90;66.99;99843.69;5012806;28;19918;-66
2023/03/07 00:17:45;;;;;;;;;;;;;;;6.90;66.84;99832.97;5013121;28;19917;-68
2023/03/07 00:20:13;;;;;;;;;;;;;;;6.91;67.05;99834.56;5018277;28;19940;-68
2023/03/07 00:22:38;;;;;;;;;;;;;;;6.90;66.88;99834.81;5012102;28;19913;-71
2023/03/07 00:25:03;;;;;;;;;;;;;;;6.91;66.86;99831.09;5011962;28;19924;-68
2023/03/07 00:27:30;;;;;;;;;;;;;;;6.89;66.98;99831.31;5012361;28;19922;-66
2023/03/07 00:29:56;;;;;;;;;;;;;;;6.89;66.98;99825.94;5025416;28;19918;-67
2023/03/07 00:32:21;;;;;;;;;;;;;;;6.90;66.88;99826.75;5012569;28;20003;-67
2023/03/07 00:34:46;;;;;;;;;;;;;;;6.90;66.93;99826.75;5012178;28;19940;-66
2023/03/07 00:37:12;;;;;;;;;;;;;;;6.89;66.75;99819.75;5012451;28;20016;-66
2023/03/07 00:39:37;;;;;;;;;;;;;;;6.88;66.92;99812.78;5030550;28;19925;-66
2023/03/07 00:42:03;;;;;;;;;;;;;;;6.89;66.97;99822.44;5026632;28;19991;-66
2023/03/07 00:44:28;;;;;;;;;;;;;;;6.87;66.86;99817.31;5014058;28;19918;-66
2023/03/07 00:46:54;;;;;;;;;;;;;;;6.87;66.94;99809.25;5016134;28;19956;-66
2023/03/07 00:49:20;;;;;;;;;;;;;;;6.87;67.01;99811.94;5016292;28;20389;-66
2023/03/07 00:51:45;;;;;;;;;;;;;;;6.86;67.10;99807.63;5033134;28;19920;-67
2023/03/07 00:54:10;;;;;;;;;;;;;;;6.87;66.86;99819.19;5022120;28;19920;-66
2023/03/07 00:56:35;;;;;;;;;;;;;;;6.86;66.99;99818.38;5016194;28;19936;-66
2023/03/07 00:59:01;;;;;;;;;;;;;;;6.86;67.13;99812.19;5015790;28;20316;-66
2023/03/07 01:01:26;;;;;;;;;;;;;;;6.86;66.79;99804.97;5019654;28;19921;-67
2023/03/07 01:03:52;;;;;;;;;;;;;;;6.84;67.28;99801.69;5015348;28;19926;-66
2023/03/07 01:06:18;;;;;;;;;;;;;;;6.86;66.77;99801.47;5016122;28;19918;-66
2023/03/07 01:08:43;;;;;;;;;;;;;;;6.84;66.95;99799.00;5015823;28;19924;-71
2023/03/07 01:11:09;;;;;;;;;;;;;;;6.84;67.22;99801.69;5022779;28;19924;-66
2023/03/07 01:13:35;;;;;;;;;;;;;;;6.83;66.93;99794.72;5016151;28;19918;-66
2023/03/07 01:16:26;;;;;;;;;;;;;;;6.84;66.85;99795.50;5015232;28;19972;-65
2023/03/07 01:19:02;;;;;;;;;;;;;;;6.84;67.08;99796.31;5014158;28;19924;-66
2023/03/07 01:21:29;;;;;;;;;;;;;;;6.83;67.13;99792.03;5024129;28;20020;-65
2023/03/07 01:23:55;;;;;;;;;;;;;;;6.83;67.23;99785.81;5015929;28;19969;-65
2023/03/07 01:26:25;;;;;;;;;;;;;;;6.82;67.04;99787.69;5015818;28;19914;-66
2023/03/07 01:28:51;;;;;;;;;;;;;;;6.82;67.18;99781.50;5015256;28;19964;-68
2023/03/07 01:31:16;;;;;;;;;;;;;;;6.82;67.13;99781.50;5018920;28;19917;-65
2023/03/07 01:33:42;;;;;;;;;;;;;;;6.81;67.15;99783.38;5031268;28;19928;-65
2023/03/07 01:36:18;;;;;;;;;;;;;;;6.81;67.23;99785.25;5017464;28;20338;-67
2023/03/07 01:38:43;;;;;;;;;;;;;;;6.79;67.06;99779.31;5019244;28;19917;-65
2023/03/07 01:41:09;;;;;;;;;;;;;;;6.80;67.28;99778.25;5026007;28;20059;-65
2023/03/07 01:43:34;;;;;;;;;;;;;;;6.80;67.11;99772.88;5020964;28;19976;-66
2023/03/07 01:46:18;;;;;;;;;;;;;;;6.79;66.95;99777.44;5014690;28;19925;-66
2023/03/07 01:48:44;;;;;;;;;;;;;;;6.79;67.12;99777.44;5015231;28;19914;-66
2023/03/07 01:51:10;;;;;;;;;;;;;;;6.78;66.95;99773.16;5014716;28;19918;-66
2023/03/07 01:53:36;;;;;;;;;;;;;;;6.78;67.35;99775.81;5022264;28;19956;-67
2023/03/07 01:56:01;;;;;;;;;;;;;;;6.77;67.25;99759.94;5014153;28;19917;-66
2023/03/07 01:58:26;;;;;;;;;;;;;;;6.78;67.20;99765.09;5014933;28;19964;-67
2023/03/07 02:00:51;;;;;;;;;;;;;;;6.78;67.19;99758.88;5014745;28;19924;-66
2023/03/07 02:03:17;;;;;;;;;;;;;;;6.78;67.27;99756.19;5022329;28;19921;-66
2023/03/07 02:05:50;;;;;;;;;;;;;;;6.77;67.36;99752.72;5023056;28;19917;-66
2023/03/07 02:08:17;;;;;;;;;;;;;;;6.76;67.20;99753.78;5022825;28;19940;-66
2023/03/07 02:10:42;;;;;;;;;;;;;;;6.75;67.18;99746.75;5014974;28;19913;-66
2023/03/07 02:13:08;;;;;;;;;;;;;;;6.75;67.21;99746.75;5019348;28;20163;-66
2023/03/07 02:15:34;;;;;;;;;;;;;;;6.74;66.98;99744.34;5029595;28;19928;-65
2023/03/07 02:18:00;;;;;;;;;;;;;;;6.75;67.26;99732.53;5015208;28;19914;-66
2023/03/07 02:20:25;;;;;;;;;;;;;;;6.75;67.14;99735.22;5014757;28;20068;-66
2023/03/07 02:22:51;;;;;;;;;;;;;;;6.74;67.32;99725.56;5014026;28;20011;-71
2023/03/07 02:25:29;;;;;;;;;;;;;;;6.74;67.38;99725.56;5029683;28;19929;-66
2023/03/07 02:27:55;;;;;;;;;;;;;;;6.74;67.02;99726.38;5029947;28;19917;-66
2023/03/07 02:30:21;;;;;;;;;;;;;;;6.74;67.47;99734.41;5032790;28;19920;-66
2023/03/07 02:32:46;;;;;;;;;;;;;;;6.73;67.43;99722.06;5034587;28;19913;-66
2023/03/07 02:35:13;;;;;;;;;;;;;;;6.72;67.29;99718.53;5028701;28;19927;-68
2023/03/07 02:37:38;;;;;;;;;;;;;;;6.72;67.29;99718.53;5019937;28;20340;-67
2023/03/07 02:40:07;;;;;;;;;;;;;;;6.73;67.43;99716.69;5014161;28;19918;-67
2023/03/07 02:42:34;;;;;;;;;;;;;;;6.73;67.28;99719.38;5014313;28;19917;-66
2023/03/07 02:45:00;;;;;;;;;;;;;;;6.73;67.37;99719.38;5024359;28;20284;-66
2023/03/07 02:47:26;;;;;;;;;;;;;;;6.73;67.33;99708.66;5023072;28;19992;-66
2023/03/07 02:49:51;;;;;;;;;;;;;;;6.72;67.33;99712.38;5014199;28;20028;-67
2023/03/07 02:52:17;;;;;;;;;;;;;;;6.72;67.31;99712.38;5020306;28;20003;-66
2023/03/07 02:54:42;;;;;;;;;;;;;;;6.72;67.24;99704.31;5027456;28;20004;-66
2023/03/07 02:57:09;;;;;;;;;;;;;;;6.71;67.42;99705.38;5023172;28;19921;-66
2023/03/07 02:59:34;;;;;;;;;;;;;;;6.71;67.27;99713.44;5032459;28;19967;-66
2023/03/07 03:02:00;;;;;;;;;;;;;;;6.71;67.46;99716.13;5015021;28;19925;-67
2023/03/07 03:04:25;;;;;;;;;;;;;;;6.72;67.31;99709.69;5014429;28;19921;-67
2023/03/07 03:06:50;;;;;;;;;;;;;;;6.71;67.21;99714.25;5019069;28;19925;-68
2023/03/07 03:09:15;;;;;;;;;;;;;;;6.72;67.24;99713.16;5022937;28;20434;-67
2023/03/07 03:11:41;;;;;;;;;;;;;;;6.71;67.44;99716.91;5013684;28;19917;-64
2023/03/07 03:14:06;;;;;;;;;;;;;;;6.72;67.41;99715.84;5013316;28;19920;-66
2023/03/07 03:16:32;;;;;;;;;;;;;;;6.71;67.39;99716.91;5017111;28;20344;-68
2023/03/07 03:18:57;;;;;;;;;;;;;;;6.71;67.46;99706.19;5023919;28;19964;-71
2023/03/07 03:21:22;;;;;;;;;;;;;;;6.70;67.27;99706.41;5013673;28;19917;-67
2023/03/07 03:23:47;;;;;;;;;;;;;;;6.71;67.43;99694.66;5013627;28;19988;-67
2023/03/07 03:26:13;;;;;;;;;;;;;;;6.70;67.28;99699.22;5020958;28;19917;-68
2023/03/07 03:28:39;;;;;;;;;;;;;;;6.71;67.20;99691.97;5030367;28;19921;-67
2023/03/07 03:31:08;;;;;;;;;;;;;;;6.70;67.26;99696.53;5012693;28;19921;-66
2023/03/07 03:33:33;;;;;;;;;;;;;;;6.70;67.35;99690.31;5013413;28;19913;-67
2023/03/07 03:35:59;;;;;;;;;;;;;;;6.70;67.39;99688.47;5016421;28;19913;-71
2023/03/07 03:38:25;;;;;;;;;;;;;;;6.70;67.27;99691.16;5020365;28;20262;-67
2023/03/07 03:40:50;;;;;;;;;;;;;;;6.70;67.17;99683.09;5021560;28;20027;-65
2023/03/07 03:43:16;;;;;;;;;;;;;;;6.70;67.32;99682.28;5012755;28;19925;-66
2023/03/07 03:45:42;;;;;;;;;;;;;;;6.69;67.32;99669.91;5013314;28;20581;-66
2023/03/07 03:48:07;;;;;;;;;;;;;;;6.68;67.32;99668.31;5023673;28;20270;-66
2023/03/07 03:50:33;;;;;;;;;;;;;;;6.68;67.36;99669.09;5020454;28;20404;-66
2023/03/07 03:53:01;;;;;;;;;;;;;;;6.67;67.53;99664.78;5013008;28;19957;-66
2023/03/07 03:55:26;;;;;;;;;;;;;;;6.67;67.31;99659.41;5017424;28;19917;-66
2023/03/07 03:57:52;;;;;;;;;;;;;;;6.68;67.41;99657.56;5025950;28;19975;-66
2023/03/07 04:00:18;;;;;;;;;;;;;;;6.67;67.46;99655.94;5030941;28;19923;-69
2023/03/07 04:02:44;;;;;;;;;;;;;;;6.67;67.35;99661.28;5031927;28;19921;-67
2023/03/07 04:05:09;;;;;;;;;;;;;;;6.66;67.45;99655.13;5012668;28;20028;-67
2023/03/07 04:07:35;;;;;;;;;;;;;;;6.68;67.20;99652.19;5022190;28;19921;-66
2023/03/07 04:10:00;;;;;;;;;;;;;;;6.67;67.43;99648.69;5017357;28;19920;-69
2023/03/07 04:12:25;;;;;;;;;;;;;;;6.67;67.23;99650.56;5018027;28;20293;-67
2023/03/07 04:14:51;;;;;;;;;;;;;;;6.65;67.28;99642.78;5012804;28;19982;-67
2023/03/07 04:17:16;;;;;;;;;;;;;;;6.65;67.43;99645.44;5027122;28;20369;-66
2023/03/07 04:19:41;;;;;;;;;;;;;;;6.65;67.38;99644.63;5013413;28;20581;-65
2023/03/07 04:22:06;;;;;;;;;;;;;;;6.65;67.46;99639.25;5018590;28;19944;-66
2023/03/07 04:24:31;;;;;;;;;;;;;;;6.65;67.38;99640.09;5012327;28;19924;-66
2023/03/07 04:26:57;;;;;;;;;;;;;;;6.65;67.26;99640.09;5014108;28;19926;-66
2023/03/07 04:29:22;;;;;;;;;;;;;;;6.66;67.68;99630.16;5012162;28;19921;-67
2023/03/07 04:31:47;;;;;;;;;;;;;;;6.64;67.37;99626.91;5021766;28;19921;-68
2023/03/07 04:34:12;;;;;;;;;;;;;;;6.64;67.34;99627.72;5016957;28;19964;-66
2023/03/07 04:36:38;;;;;;;;;;;;;;;6.64;67.50;99633.06;5016503;28;19917;-66
2023/03/07 04:39:03;;;;;;;;;;;;;;;6.64;67.34;99622.34;5024530;28;20428;-65
2023/03/07 04:41:28;;;;;;;;;;;;;;;6.64;67.26;99627.72;5014595;28;19929;-66
2023/03/07 04:43:54;;;;;;;;;;;;;;;6.64;67.37;99626.91;5019795;28;19921;-65
2023/03/07 04:46:19;;;;;;;;;;;;;;;6.64;67.20;99625.03;5011643;28;20396;-67
2023/03/07 04:48:45;;;;;;;;;;;;;;;6.64;67.17;99622.34;5023425;28;19917;-67
2023/03/07 04:51:10;;;;;;;;;;;;;;;6.64;67.38;99619.66;5011633;28;20288;-67
2023/03/07 04:53:35;;;;;;;;;;;;;;;6.64;67.47;99614.28;5015437;28;19928;-65
2023/03/07 04:56:02;;;;;;;;;;;;;;;6.64;67.21;99600.06;5012701;28;20235;-65
2023/03/07 04:58:28;;;;;;;;;;;;;;;6.63;67.21;99601.94;5022042;28;20180;-66
2023/03/07 05:00:55;;;;;;;;;;;;;;;6.64;67.33;99608.13;5016250;28;20453;-67
2023/03/07 05:03:21;;;;;;;;;;;;;;;6.64;67.28;99606.25;5016647;28;20016;-66
2023/03/07 05:05:46;;;;;;;;;;;;;;;6.63;67.26;99607.31;5029907;28;20016;-67
2023/03/07 05:08:11;;;;;;;;;;;;;;;6.63;67.23;99607.31;5030513;28;20431;-66
2023/03/07 05:10:37;;;;;;;;;;;;;;;6.64;67.23;99602.75;5017161;28;20027;-66
2023/03/07 05:13:02;;;;;;;;;;;;;;;6.63;67.30;99601.94;5013325;28;19924;-66
2023/03/07 05:15:27;;;;;;;;;;;;;;;6.64;67.26;99597.38;5022670;28;19921;-66
2023/03/07 05:17:53;;;;;;;;;;;;;;;6.64;67.05;99598.19;5012199;28;19913;-67
2023/03/07 05:20:18;;;;;;;;;;;;;;;6.64;67.47;99594.69;5014498;28;19924;-67
2023/03/07 05:22:44;;;;;;;;;;;;;;;6.63;67.26;99598.47;5012408;28;19956;-67
2023/03/07 05:25:09;;;;;;;;;;;;;;;6.63;67.37;99579.66;5018686;28;20401;-71
2023/03/07 05:27:34;;;;;;;;;;;;;;;6.63;67.30;99591.22;5011726;28;20353;-66
2023/03/07 05:30:00;;;;;;;;;;;;;;;6.64;67.17;99589.34;5024400;28;20075;-66
2023/03/07 05:32:25;;;;;;;;;;;;;;;6.62;66.99;99583.41;5014521;28;19917;-66
2023/03/07 05:34:51;;;;;;;;;;;;;;;6.62;67.30;99575.34;5022304;28;20392;-66
2023/03/07 05:37:16;;;;;;;;;;;;;;;6.62;67.21;99583.41;5014906;28;19963;-66
2023/03/07 05:39:41;;;;;;;;;;;;;;;6.62;67.23;99586.88;5024659;28;19931;-66
2023/03/07 05:42:07;;;;;;;;;;;;;;;6.61;67.37;99584.47;5023277;28;19925;-66
2023/03/07 05:44:32;;;;;;;;;;;;;;;6.61;67.21;99587.16;5015904;28;19920;-66
2023/03/07 05:46:57;;;;;;;;;;;;;;;6.59;67.17;99587.38;5026002;28;19922;-66
2023/03/07 05:49:23;;;;;;;;;;;;;;;6.59;67.33;99600.78;5017862;28;19917;-66
2023/03/07 05:51:49;;;;;;;;;;;;;;;6.58;67.60;99596.50;5020648;28;19924;-66
2023/03/07 05:54:14;;;;;;;;;;;;;;;6.58;67.50;99598.38;5014561;28;20008;-72
2023/03/07 05:56:39;;;;;;;;;;;;;;;6.57;67.64;99600.22;5024281;28;20385;-67
2023/03/07 05:59:06;;;;;;;;;;;;;;;6.57;67.51;99589.50;5014994;28;20025;-67
2023/03/07 06:01:32;;;;;;;;;;;;;;;6.56;67.40;99589.75;5022522;28;19997;-67
2023/03/07 06:03:57;;;;;;;;;;;;;;;6.56;67.30;99590.56;5014397;28;19925;-67
2023/03/07 06:06:22;;;;;;;;;;;;;;;6.55;67.34;99594.31;5021916;28;19963;-67
2023/03/07 06:08:47;;;;;;;;;;;;;;;6.55;67.35;99593.47;5019236;28;20293;-66
2023/03/07 06:11:13;;;;;;;;;;;;;;;6.54;67.38;99603.41;5025444;28;19921;-68
2023/03/07 06:13:38;;;;;;;;;;;;;;;6.53;67.50;99601.78;5020101;28;20009;-66
2023/03/07 06:16:04;;;;;;;;;;;;;;;6.53;67.64;99599.09;5014808;28;19963;-66
2023/03/07 06:18:29;;;;;;;;;;;;;;;6.52;67.58;99600.13;5027082;28;19953;-66
2023/03/07 06:20:56;;;;;;;;;;;;;;;6.52;67.31;99600.13;5019470;28;20365;-66
2023/03/07 06:23:21;;;;;;;;;;;;;;;6.52;67.33;99593.97;5019840;28;19918;-67
2023/03/07 06:25:47;;;;;;;;;;;;;;;6.50;67.36;99587.00;5014811;28;20389;-66
2023/03/07 06:28:12;;;;;;;;;;;;;;;6.52;67.48;99586.72;5026487;28;19921;-66
2023/03/07 06:30:37;;;;;;;;;;;;;;;6.51;67.37;99574.38;5022299;28;19979;-67
2023/03/07 06:33:02;;;;;;;;;;;;;;;6.51;67.39;99577.06;5022204;28;19921;-66
2023/03/07 06:35:28;;;;;;;;;;;;;;;6.51;67.37;99579.75;5016620;28;19994;-67
2023/03/07 06:37:53;;;;;;;;;;;;;;;6.52;67.46;99580.56;5032319;28;19952;-66
2023/03/07 06:40:18;;;;;;;;;;;;;;;6.50;67.45;99587.00;5014357;28;19964;-72
2023/03/07 06:42:44;;;;;;;;;;;;;;;6.51;67.36;99587.78;5026113;28;19924;-67
2023/03/07 06:45:09;;;;;;;;;;;;;;;6.51;67.20;99598.53;5014781;28;19999;-67
2023/03/07 06:47:34;;;;;;;;;;;;;;;6.49;67.30;99598.75;5014150;28;19959;-66
2023/03/07 06:50:01;;;;;;;;;;;;;;;6.50;67.57;99599.56;5023256;28;19952;-66
2023/03/07 06:52:26;;;;;;;;;;;;;;;6.48;67.36;99594.47;5022942;28;19921;-66
2023/03/07 06:54:51;;;;;;;;;;;;;;;6.49;67.61;99592.59;5025840;28;19924;-65
2023/03/07 06:57:17;;;;;;;;;;;;;;;6.49;67.47;99592.59;5014305;28;19960;-68
2023/03/07 06:59:42;;;;;;;;;;;;;;;6.48;67.31;99583.72;5024973;28;19921;-82
2023/03/07 07:02:10;;;;;;;;;;;;;;;6.48;67.36;99581.06;5025989;28;20357;-66
2023/03/07 07:04:35;;;;;;;;;;;;;;;6.45;67.28;99581.53;5020734;28;20390;-66
2023/03/07 07:07:00;;;;;;;;;;;;;;;6.44;67.41;99571.84;5014272;28;19922;-65
2023/03/07 07:09:26;;;;;;;;;;;;;;;6.43;67.26;99585.53;5016611;28;20273;-65
2023/03/07 07:11:51;;;;;;;;;;;;;;;6.42;67.27;99587.38;5030738;28;19925;-65
2023/03/07 07:14:16;;;;;;;;;;;;;;;6.43;67.08;99599.75;5013994;28;20020;-65
2023/03/07 07:16:42;;;;;;;;;;;;;;;6.43;67.30;99598.94;5013619;28;19924;-65
2023/03/07 07:19:07;;;;;;;;;;;;;;;6.42;67.06;99599.97;5031486;28;19929;-66
2023/03/07 07:21:32;;;;;;;;;;;;;;;6.41;67.37;99614.47;5020591;28;19925;-66
2023/03/07 07:23:58;;;;;;;;;;;;;;;6.39;67.37;99620.06;5015694;28;19925;-62
2023/03/07 07:26:23;;;;;;;;;;;;;;;6.39;67.30;99614.69;5013580;28;19917;-68
2023/03/07 07:28:49;;;;;;;;;;;;;;;6.39;67.49;99629.97;5021489;28;19923;-66
2023/03/07 07:31:14;;;;;;;;;;;;;;;6.38;67.31;99631.03;5018626;28;19913;-65
2023/03/07 07:33:40;;;;;;;;;;;;;;;6.38;67.42;99634.53;5023380;28;19971;-66
2023/03/07 07:36:06;;;;;;;;;;;;;;;6.38;67.31;99639.09;5013954;28;19952;-65
2023/03/07 07:38:31;;;;;;;;;;;;;;;6.38;67.57;99639.09;5014374;28;19975;-65
2023/03/07 07:40:56;;;;;;;;;;;;;;;6.36;67.50;99633.94;5027561;28;19976;-67
2023/03/07 07:43:21;;;;;;;;;;;;;;;6.36;67.46;99633.16;5014987;28;19921;-66
2023/03/07 07:45:47;;;;;;;;;;;;;;;6.34;67.40;99636.06;5017523;28;19921;-65
2023/03/07 07:48:12;;;;;;;;;;;;;;;6.35;67.41;99635.03;5013873;28;19917;-65
2023/03/07 07:50:37;;;;;;;;;;;;;;;6.34;67.59;99638.75;5024569;28;19928;-65
2023/03/07 07:53:03;;;;;;;;;;;;;;;6.35;67.63;99648.44;5031131;28;20003;-66
2023/03/07 07:55:28;;;;;;;;;;;;;;;6.35;67.63;99651.13;5025269;28;20377;-66
2023/03/07 07:57:53;;;;;;;;;;;;;;;6.35;67.55;99647.59;5018706;28;19917;-65
2023/03/07 08:00:22;;;;;;;;;;;;;;;6.34;67.40;99656.72;5031300;28;19925;-65
2023/03/07 08:02:50;;;;;;;;;;;;;;;6.33;67.43;99658.59;5025559;28;19962;-67
2023/03/07 08:05:17;;;;;;;;;;;;;;;6.32;67.38;99664.97;5020995;28;20326;-68
2023/03/07 08:07:42;;;;;;;;;;;;;;;6.32;67.48;99659.63;5012855;28;19913;-66
2023/03/07 08:10:08;;;;;;;;;;;;;;;6.31;67.72;99660.69;5014348;28;20277;-66
2023/03/07 08:12:33;;;;;;;;;;;;;;;6.32;67.74;99674.91;5022745;28;19993;-66
2023/03/07 08:14:58;;;;;;;;;;;;;;;6.32;67.38;99674.91;5032141;28;19921;-66
2023/03/07 08:17:24;;;;;;;;;;;;;;;6.30;67.62;99677.84;5030534;28;19917;-66
2023/03/07 08:19:49;;;;;;;;;;;;;;;6.29;67.44;99671.66;5031836;28;19913;-66
2023/03/07 08:22:15;;;;;;;;;;;;;;;6.29;67.41;99682.38;5031275;28;19920;-67
2023/03/07 08:24:41;;;;;;;;;;;;;;;6.30;67.38;99688.56;5015317;28;19929;-68
2023/03/07 08:27:06;;;;;;;;;;;;;;;6.29;67.38;99684.25;5016085;28;19917;-68
2023/03/07 08:29:32;;;;;;;;;;;;;;;6.28;67.49;99683.44;5012235;28;20401;-67
2023/03/07 08:31:57;;;;;;;;;;;;;;;6.27;67.40;99673.78;5019421;28;20353;-67
2023/03/07 08:34:22;;;;;;;;;;;;;;;6.29;67.60;99678.88;5031008;28;19948;-67
2023/03/07 08:36:47;;;;;;;;;;;;;;;6.27;67.26;99675.63;5016925;28;19926;-67
2023/03/07 08:39:13;;;;;;;;;;;;;;;6.27;67.55;99673.78;5012723;28;19913;-66
2023/03/07 08:41:38;;;;;;;;;;;;;;;6.27;67.14;99672.94;5012306;28;19917;-67
2023/03/07 08:44:03;;;;;;;;;;;;;;;6.27;67.46;99672.94;5015143;28;20020;-68
2023/03/07 08:46:29;;;;;;;;;;;;;;;6.27;67.41;99670.25;5023624;28;19960;-69
2023/03/07 08:48:54;;;;;;;;;;;;;;;6.26;67.37;99672.13;5027225;28;20372;-66
2023/03/07 08:51:19;;;;;;;;;;;;;;;6.26;67.52;99671.31;5015477;28;19918;-68
2023/03/07 08:53:45;;;;;;;;;;;;;;;6.26;67.25;99671.31;5024760;28;20019;-69
2023/03/07 08:56:14;;;;;;;;;;;;;;;6.26;67.44;99676.69;5020090;28;20059;-68
2023/03/07 08:58:40;;;;;;;;;;;;;;;6.25;67.40;99657.09;5017336;28;19914;-69
2023/03/07 09:01:06;;;;;;;;;;;;;;;6.26;67.25;99665.97;5012231;28;19913;-69
2023/03/07 09:03:32;;;;;;;;;;;;;;;6.24;67.23;99674.22;5028154;28;20368;-66
2023/03/07 09:05:57;;;;;;;;;;;;;;;6.25;67.23;99672.38;5018557;28;19948;-68
2023/03/07 09:08:22;;;;;;;;;;;;;;;6.24;67.15;99681.47;5024580;28;20002;-67
2023/03/07 09:10:48;;;;;;;;;;;;;;;6.24;67.31;99684.16;5016172;28;20354;-67
2023/03/07 09:13:13;;;;;;;;;;;;;;;6.24;67.28;99684.97;5018833;28;19928;-68
2023/03/07 09:15:39;;;;;;;;;;;;;;;6.23;67.09;99680.66;5032263;28;19921;-66
2023/03/07 09:18:04;;;;;;;;;;;;;;;6.23;67.39;99680.66;5019535;28;19980;-67
2023/03/07 09:20:29;;;;;;;;;;;;;;;6.23;67.27;99686.03;5016273;28;19971;-66
2023/03/07 09:22:55;;;;;;;;;;;;;;;6.22;67.24;99684.41;5016097;28;20340;-68
2023/03/07 09:25:20;;;;;;;;;;;;;;;6.22;67.25;99687.09;5021454;28;19925;-67
2023/03/07 09:27:46;;;;;;;;;;;;;;;6.22;67.60;99688.94;5021363;28;20270;-67
2023/03/07 09:30:12;;;;;;;;;;;;;;;6.21;67.40;99684.63;5032692;28;19921;-67
2023/03/07 09:32:37;;;;;;;;;;;;;;;6.22;67.18;99695.13;5033063;28;20016;-67
2023/03/07 09:35:03;;;;;;;;;;;;;;;6.22;67.40;99702.34;5024103;28;20010;-69
2023/03/07 09:37:28;;;;;;;;;;;;;;;6.22;67.29;99691.63;5026980;28;19975;-73
2023/03/07 09:39:53;;;;;;;;;;;;;;;6.20;67.37;99696.41;5019997;28;20366;-67
2023/03/07 09:42:19;;;;;;;;;;;;;;;6.21;67.55;99690.00;5013949;28;19918;-69
2023/03/07 09:44:47;;;;;;;;;;;;;;;6.20;67.33;99696.41;5027985;28;20401;-67
2023/03/07 09:47:12;;;;;;;;;;;;;;;6.20;67.55;99691.03;5028568;28;20361;-68
2023/03/07 09:49:46;;;;;;;;;;;;;;;6.20;67.61;99691.03;5020147;28;19925;-65
2023/03/07 09:52:13;;;;;;;;;;;;;;;6.20;67.50;99683.00;5014168;28;19921;-69
2023/03/07 09:54:47;;;;;;;;;;;;;;;6.21;67.37;99687.31;5013645;28;19925;-67
2023/03/07 09:57:18;;;;;;;;;;;;;;;6.20;67.54;99696.41;5013818;28;19921;-67
2023/03/07 09:59:49;;;;;;;;;;;;;;;6.19;67.48;99689.41;5027603;28;20254;-66
2023/03/07 10:02:30;;;;;;;;;;;;;;;6.19;67.81;99692.09;5032031;28;19986;-66
2023/03/07 10:05:05;;;;;;;;;;;;;;;6.18;67.50;99693.97;5032511;28;20347;-66
2023/03/07 10:07:31;;;;;;;;;;;;;;;6.19;67.68;99689.41;5032310;28;19924;-67
2023/03/07 10:09:58;;;;;;;;;;;;;;;6.19;67.54;99694.78;5030865;28;19917;-67
2023/03/07 10:12:37;;;;;;;;;;;;;;;6.18;67.54;99688.63;5021517;28;19928;-66
2023/03/07 10:15:21;;;;;;;;;;;;;;;6.18;67.60;99685.94;5021479;28;20317;-67
2023/03/07 10:18:21;;;;;;;;;;;;;;;6.18;67.65;99685.94;5011952;28;19925;-67
2023/03/07 10:20:46;;;;;;;;;;;;;;;6.18;67.64;99687.81;4991616;28;19925;-66
2023/03/07 10:23:31;;;;;;;;;;;;;;;6.19;67.67;99689.41;5015716;28;20262;-67
2023/03/07 10:26:08;;;;;;;;;;;;;;;6.18;67.73;99685.13;5016432;28;19940;-67
2023/03/07 10:28:36;;;;;;;;;;;;;;;6.18;67.89;99679.75;5017245;28;19919;-66
2023/03/07 10:31:22;;;;;;;;;;;;;;;6.18;67.82;99682.44;5028155;28;19928;-69
2023/03/07 10:33:48;;;;;;;;;;;;;;;6.18;67.76;99685.13;5013501;28;20373;-67
2023/03/07 10:36:17;;;;;;;;;;;;;;;6.18;67.88;99687.81;5014303;28;19913;-81
2023/03/07 10:38:54;;;;;;;;;;;;;;;6.18;67.80;99685.94;5027769;28;19913;-70
2023/03/07 10:41:20;;;;;;;;;;;;;;;6.17;67.64;99678.91;5025532;28;19928;-67
2023/03/07 10:43:46;;;;;;;;;;;;;;;6.17;67.68;99676.25;5014374;28;20000;-67
2023/03/07 10:46:13;;;;;;;;;;;;;;;6.19;67.61;99684.06;5014521;28;19921;-67
2023/03/07 10:48:41;;;;;;;;;;;;;;;6.19;67.55;99678.69;5027609;28;19917;-67
2023/03/07 10:51:29;;;;;;;;;;;;;;;6.18;67.63;99683.25;5032451;28;19922;-68
2023/03/07 10:53:55;;;;;;;;;;;;;;;6.19;67.47;99692.09;5003066;28;20356;-67
2023/03/07 10:56:21;;;;;;;;;;;;;;;6.19;67.81;99684.06;5014693;28;19913;-67
2023/03/07 10:59:08;;;;;;;;;;;;;;;6.19;67.80;99690.22;5016611;28;19945;-67
2023/03/07 11:01:34;;;;;;;;;;;;;;;6.19;67.70;99687.53;5024675;28;19988;-67
2023/03/07 11:04:01;;;;;;;;;;;;;;;6.19;67.88;99687.53;5019080;28;19922;-68
2023/03/07 11:06:34;;;;;;;;;;;;;;;6.21;67.50;99687.31;5014132;28;19913;-67
2023/03/07 11:09:16;;;;;;;;;;;;;;;6.21;67.44;99690.00;5019900;28;20368;-69
2023/03/07 11:12:02;;;;;;;;;;;;;;;6.21;67.57;99682.75;5031640;28;19921;-67
2023/03/07 11:14:27;;;;;;;;;;;;;;;6.20;67.63;99683.84;5010967;28;19920;-68
2023/03/07 11:16:58;;;;;;;;;;;;;;;6.21;67.80;99685.44;5013793;28;20012;-67
2023/03/07 11:19:43;;;;;;;;;;;;;;;6.21;67.76;99682.75;5018751;28;20361;-66
2023/03/07 11:22:16;;;;;;;;;;;;;;;6.22;67.68;99691.63;5028554;28;20003;-67
2023/03/07 11:24:46;;;;;;;;;;;;;;;6.21;67.70;99685.44;5014104;28;20428;-66
2023/03/07 11:27:19;;;;;;;;;;;;;;;6.23;67.83;99701.31;5013643;28;19917;-67
2023/03/07 11:29:54;;;;;;;;;;;;;;;6.23;67.69;99694.06;5015432;28;19928;-71
2023/03/07 11:32:21;;;;;;;;;;;;;;;6.23;67.77;99695.94;5019448;28;19917;-67
2023/03/07 11:34:55;;;;;;;;;;;;;;;6.23;67.81;99690.59;5028058;28;19971;-67
2023/03/07 11:37:20;;;;;;;;;;;;;;;6.24;67.97;99692.19;5031755;28;19967;-68
2023/03/07 11:39:49;;;;;;;;;;;;;;;6.24;67.89;99692.19;5030208;28;19913;-67
2023/03/07 11:42:16;;;;;;;;;;;;;;;6.24;67.91;99694.88;5024477;28;19964;-67
2023/03/07 11:44:59;;;;;;;;;;;;;;;6.24;67.88;99693.00;5018635;28;19917;-70
2023/03/07 11:47:24;;;;;;;;;;;;;;;6.24;67.82;99690.31;5012537;28;19913;-67
2023/03/07 11:49:50;;;;;;;;;;;;;;;6.26;67.75;99692.78;5011375;28;20276;-67
2023/03/07 11:52:26;;;;;;;;;;;;;;;6.26;67.75;99687.41;5024799;28;19921;-68
2023/03/07 11:54:51;;;;;;;;;;;;;;;6.27;67.80;99689.88;5027364;28;19975;-67
2023/03/07 11:57:16;;;;;;;;;;;;;;;6.27;67.53;99686.34;5023421;28;19918;-67
2023/03/07 11:59:48;;;;;;;;;;;;;;;6.28;68.00;99682.63;5011930;28;20435;-68
2023/03/07 12:02:28;;;;;;;;;;;;;;;6.28;67.78;99688.81;5023702;28;19935;-67
2023/03/07 12:04:56;;;;;;;;;;;;;;;6.29;67.80;99673.50;5021734;28;19972;-67
2023/03/07 12:07:28;;;;;;;;;;;;;;;6.29;67.63;99674.31;5011771;28;19924;-70
2023/03/07 12:10:13;;;;;;;;;;;;;;;6.29;67.92;99674.31;5010820;28;20336;-69
2023/03/07 12:12:57;;;;;;;;;;;;;;;6.31;67.98;99675.97;5007518;28;20413;-67
2023/03/07 12:15:28;;;;;;;;;;;;;;;6.31;67.80;99682.16;5016509;28;20297;-67
2023/03/07 12:18:12;;;;;;;;;;;;;;;6.31;67.77;99676.78;5014967;28;19917;-70
2023/03/07 12:20:51;;;;;;;;;;;;;;;6.32;67.94;99683.75;5031092;28;19913;-67
2023/03/07 12:23:34;;;;;;;;;;;;;;;6.33;67.79;99681.91;5031172;28;20424;-66
2023/03/07 12:26:04;;;;;;;;;;;;;;;6.35;67.70;99687.81;5013119;28;19917;-66
2023/03/07 12:28:42;;;;;;;;;;;;;;;6.35;67.88;99683.31;5011628;28;20354;-66
2023/03/07 12:31:16;;;;;;;;;;;;;;;6.36;67.67;99684.09;5010562;28;20751;-67
2023/03/07 12:33:57;;;;;;;;;;;;;;;6.36;67.92;99690.28;5011200;28;20373;-66
2023/03/07 12:36:36;;;;;;;;;;;;;;;6.38;67.75;99687.38;5011594;28;19917;-67
2023/03/07 12:39:09;;;;;;;;;;;;;;;6.38;68.02;99682.81;5010508;28;19921;-70
2023/03/07 12:41:37;;;;;;;;;;;;;;;6.38;67.72;99674.75;5027914;28;19917;-68
2023/03/07 12:44:05;;;;;;;;;;;;;;;6.38;67.88;99680.13;5012295;28;19913;-66
2023/03/07 12:46:47;;;;;;;;;;;;;;;6.41;68.06;99673.47;5015142;28;19924;-69
2023/03/07 12:49:20;;;;;;;;;;;;;;;6.42;67.97;99683.13;5010938;28;19913;-68
2023/03/07 12:51:52;;;;;;;;;;;;;;;6.43;67.95;99674.84;5020382;28;20369;-67
2023/03/07 12:54:22;;;;;;;;;;;;;;;6.44;68.17;99671.09;5020566;28;19925;-66
2023/03/07 12:57:05;;;;;;;;;;;;;;;6.45;67.92;99678.13;5011112;28;19917;-68
2023/03/07 12:59:34;;;;;;;;;;;;;;;6.45;68.08;99671.91;5011383;28;19967;-68